Skip to main content.
 TIME   TEMPERATURE   WINDSPEED   DIRECTION   HUMIDITY   BAROMETER   RAINFALL 
6:35 16.0°C (60.8°F) 1.9 kmh (1.2 mph) N 56% 1019.0hPa (30.09 inHg) 0.0mm (0.00 in.)
5:35 17.4°C (63.3 °F) 14.8 kmh (9.2 mph) NNW 56% 1018.0hPa (30.06 inHg) 0.0mm (0.00 in.)
4:35 17.7°C (63.9 °F) 13.0 kmh (8.1 mph) NNW 54% 1018.0hPa (30.06 inHg) 0.0mm (0.00 in.)
3:35 18.0°C (64.4 °F) 14.8 kmh (9.2 mph) NNW 53% 1017.0hPa (30.03 inHg) 0.0mm (0.00 in.)
2:35 18.3°C (64.9 °F) 14.8 kmh (9.2 mph) NNW 55% 1017.0hPa (30.03 inHg) 0.0mm (0.00 in.)
1:35 18.6°C (65.5 °F) 16.7 kmh (10.4 mph) NNW 56% 1017.0hPa (30.03 inHg) 0.0mm (0.00 in.)
12:35 18.4°C (65.1 °F) 16.7 kmh (10.4 mph) NW 57% 1017.0hPa (30.03 inHg) 0.0mm (0.00 in.)
11:35 18.3°C (64.9 °F) 11.1 kmh (6.9 mph) NNW 56% 1018.0hPa (30.06 inHg) 0.0mm (0.00 in.)
10:35 18.1°C (64.6 °F) 16.7 kmh (10.4 mph) NNW 56% 1018.0hPa (30.06 inHg) 0.0mm (0.00 in.)
9:35 17.8°C (64.0 °F) 20.4 kmh (12.7 mph) NNW 57% 1018.0hPa (30.06 inHg) 0.0mm (0.00 in.)
8:35 17.5°C (63.5 °F) 20.4 kmh (12.7 mph) NNW 58% 1017.0hPa (30.03 inHg) 0.0mm (0.00 in.)
7:35 17.1°C (62.8 °F) 11.1 kmh (6.9 mph) NNW 57% 1017.0hPa (30.03 inHg) 0.0mm (0.00 in.)
6:35 16.5°C (61.7 °F) 14.8 kmh (9.2 mph) NNW 56% 1016.0hPa (30.00 inHg) 0.0mm (0.00 in.)
5:35 16.7°C (62.1 °F) 18.5 kmh (11.5 mph) NNW 55% 1016.0hPa (30.00 inHg) 0.0mm (0.00 in.)
4:35 16.7°C (62.1 °F) 20.4 kmh (12.7 mph) NNW 55% 1015.0hPa (29.97 inHg) 0.0mm (0.00 in.)
3:35 16.6°C (61.9 °F) 24.1 kmh (15.0 mph) NW 53% 1016.0hPa (30.00 inHg) 0.0mm (0.00 in.)
2:35 16.6°C (61.9 °F) 18.5 kmh (11.5 mph) NNW 53% 1016.0hPa (30.00 inHg) 0.0mm (0.00 in.)
1:35 16.4°C (61.5 °F) 25.9 kmh (16.1 mph) NNW 52% 1016.0hPa (30.00 inHg) 0.0mm (0.00 in.)
12:35 16.4°C (61.5 °F) 14.8 kmh (9.2 mph) NNW 52% 1016.0hPa (30.00 inHg) 0.0mm (0.00 in.)
11:35 16.3°C (61.3 °F) 25.9 kmh (16.1 mph) NNW 52% 1016.0hPa (30.00 inHg) 0.0mm (0.00 in.)
10:35 16.3°C (61.3 °F) 25.9 kmh (16.1 mph) NW 53% 1016.0hPa (30.00 inHg) 0.0mm (0.00 in.)
9:35 16.4°C (61.5 °F) 18.5 kmh (11.5 mph) NW 54% 1016.0hPa (30.00 inHg) 0.0mm (0.00 in.)
8:35 16.4°C (61.5 °F) 18.5 kmh (11.5 mph) NNW 53% 1016.0hPa (30.00 inHg) 0.0mm (0.00 in.)
7:35 16.5°C (61.7 °F) 20.4 kmh (12.7 mph) NNW 52% 1016.0hPa (30.00 inHg) 0.0mm (0.00 in.)